createdAt,value
2018-06-02T00:00:26.588Z,54.70
2018-06-02T00:01:31.841Z,60.80
2018-06-02T00:02:35.951Z,53.58
2018-06-02T00:03:40.027Z,55.03
2018-06-02T00:04:44.922Z,57.90
2018-06-02T00:05:49.011Z,54.80
2018-06-02T00:06:53.123Z,58.58
2018-06-02T00:07:57.275Z,58.03
2018-06-02T00:09:01.941Z,56.42
2018-06-02T00:10:06.010Z,58.97
2018-06-02T00:11:10.160Z,59.65
2018-06-02T00:12:14.263Z,56.90
2018-06-02T00:13:18.384Z,57.15
2018-06-02T00:14:22.460Z,55.72
2018-06-02T00:15:26.543Z,60.75
2018-06-02T00:16:30.626Z,56.58
2018-06-02T00:17:34.687Z,58.78
2018-06-02T00:18:39.540Z,59.50
2018-06-02T00:19:43.580Z,56.55
2018-06-02T00:20:48.211Z,59.25
2018-06-02T00:21:52.599Z,57.75
2018-06-02T00:22:56.962Z,60.35
2018-06-02T00:24:01.296Z,57.65
2018-06-02T00:25:05.611Z,59.58
2018-06-02T00:26:10.211Z,59.97
2018-06-02T00:27:14.559Z,57.90
2018-06-02T00:28:18.920Z,59.17
2018-06-02T00:29:23.225Z,56.35
2018-06-02T00:30:28.298Z,63.47
2018-06-02T00:31:32.676Z,60.83
2018-06-02T00:32:36.851Z,59.35
2018-06-02T00:33:40.915Z,62.45
2018-06-02T00:34:45.006Z,56.70
2018-06-02T00:35:49.095Z,58.45
2018-06-02T00:36:53.177Z,61.15
2018-06-02T00:37:57.296Z,58.67
2018-06-02T00:39:01.694Z,59.25
2018-06-02T00:40:05.842Z,60.53
2018-06-02T00:41:09.915Z,58.08
2018-06-02T00:42:14.198Z,58.17
2018-06-02T00:43:18.290Z,60.17
2018-06-02T00:44:22.655Z,57.50
2018-06-02T00:45:26.719Z,55.83
2018-06-02T00:46:30.850Z,59.33
2018-06-02T00:47:35.721Z,57.53
2018-06-02T00:48:40.014Z,56.60
2018-06-02T00:49:44.863Z,56.85
2018-06-02T00:50:49.264Z,59.85
2018-06-02T00:51:53.831Z,57.50
2018-06-02T00:52:58.230Z,60.03
2018-06-02T00:54:02.565Z,60.35
2018-06-02T00:55:08.891Z,60.05
2018-06-02T00:56:13.174Z,64.70
2018-06-02T00:57:17.806Z,59.55
2018-06-02T00:58:22.107Z,59.80
2018-06-02T00:59:26.435Z,57.95
2018-06-02T01:00:30.763Z,57.05
2018-06-02T01:01:35.889Z,58.65
2018-06-02T01:02:41.048Z,60.72
2018-06-02T01:03:45.635Z,59.05
2018-06-02T01:04:50.713Z,60.85
2018-06-02T01:05:55.037Z,62.28
2018-06-02T01:06:59.447Z,59.67
2018-06-02T01:08:04.092Z,62.17
2018-06-02T01:09:09.011Z,60.10
2018-06-02T01:10:14.379Z,61.30
2018-06-02T01:11:18.723Z,62.65
2018-06-02T01:12:23.123Z,59.35
2018-06-02T01:13:27.536Z,59.47
2018-06-02T01:14:31.863Z,58.80
2018-06-02T01:15:36.226Z,57.95
2018-06-02T01:16:40.828Z,58.95
2018-06-02T01:17:45.145Z,60.92
2018-06-02T01:18:49.536Z,57.47
2018-06-02T01:19:54.720Z,62.20
2018-06-02T01:20:59.032Z,53.92
2018-06-02T01:22:03.347Z,58.70
2018-06-02T01:23:08.048Z,59.22
2018-06-02T01:24:12.610Z,60.45
2018-06-02T01:25:16.895Z,61.03
2018-06-02T01:26:21.956Z,57.42
2018-06-02T01:27:26.271Z,60.88
2018-06-02T01:28:30.963Z,61.97
2018-06-02T01:29:35.301Z,60.80
2018-06-02T01:30:39.421Z,56.88
2018-06-02T01:31:43.522Z,57.08
2018-06-02T01:32:47.622Z,58.50
2018-06-02T01:33:51.708Z,58.33
2018-06-02T01:34:55.818Z,58.72
2018-06-02T01:35:59.943Z,62.08
2018-06-02T01:37:04.028Z,62.38
2018-06-02T01:38:08.156Z,57.33
2018-06-02T01:39:12.270Z,55.28
2018-06-02T01:40:17.249Z,60.47
2018-06-02T01:41:21.352Z,58.30
2018-06-02T01:42:25.428Z,58.80
2018-06-02T01:43:29.550Z,64.55
2018-06-02T01:44:33.794Z,60.38
2018-06-02T01:45:37.939Z,62.10
2018-06-02T01:46:42.042Z,59.72
2018-06-02T01:47:46.213Z,60.30
2018-06-02T01:48:51.433Z,59.08
2018-06-02T01:49:55.587Z,58.75
2018-06-02T01:50:59.790Z,62.47
2018-06-02T01:52:04.111Z,57.40
2018-06-02T01:53:08.307Z,56.92
2018-06-02T01:54:12.718Z,57.80
2018-06-02T01:55:16.874Z,60.80
2018-06-02T01:56:20.983Z,55.33
2018-06-02T01:57:25.865Z,59.88
2018-06-02T01:58:30.027Z,60.25
2018-06-02T01:59:34.216Z,60.55
2018-06-02T02:00:39.221Z,62.03
2018-06-02T02:01:43.340Z,61.42
2018-06-02T02:02:48.203Z,57.62
2018-06-02T02:03:52.727Z,60.25
2018-06-02T02:04:57.017Z,63.10
2018-06-02T02:06:01.456Z,58.10
2018-06-02T02:07:05.891Z,59.25
2018-06-02T02:08:10.268Z,56.70
2018-06-02T02:09:14.650Z,61.03
2018-06-02T02:10:19.122Z,56.67
2018-06-02T02:11:23.542Z,55.28
2018-06-02T02:12:28.667Z,56.60
2018-06-02T02:13:33.824Z,58.38
2018-06-02T02:14:38.134Z,57.58
2018-06-02T02:15:42.504Z,58.33
2018-06-02T02:16:47.638Z,58.17
2018-06-02T02:17:52.765Z,57.25
2018-06-02T02:18:57.900Z,59.25
2018-06-02T02:20:03.029Z,56.90
2018-06-02T02:21:07.505Z,60.72
2018-06-02T02:22:11.948Z,57.17
2018-06-02T02:23:16.395Z,58.70
2018-06-02T02:24:20.922Z,57.33
2018-06-02T02:25:25.335Z,57.90
2018-06-02T02:26:29.736Z,59.75
2018-06-02T02:27:34.054Z,61.95
2018-06-02T02:28:38.449Z,59.70
2018-06-02T02:29:42.771Z,56.65
2018-06-02T02:30:47.107Z,60.03
2018-06-02T02:31:52.430Z,59.20
2018-06-02T02:33:36.517Z,59.20
2018-06-02T02:34:41.014Z,57.28
2018-06-02T02:35:45.591Z,57.70
2018-06-02T02:36:50.718Z,58.25
2018-06-02T02:37:54.821Z,51.85
2018-06-02T02:38:58.871Z,57.92
2018-06-02T02:40:03.223Z,58.50
2018-06-02T02:41:07.401Z,57.65
2018-06-02T02:42:11.651Z,53.55
2018-06-02T02:43:16.764Z,54.88
2018-06-02T02:44:20.868Z,49.65
2018-06-02T02:45:25.054Z,53.75
2018-06-02T02:46:29.110Z,58.25
2018-06-02T02:47:33.259Z,54.00
2018-06-02T02:48:37.646Z,56.50
2018-06-02T02:49:41.871Z,55.78
2018-06-02T02:50:46.215Z,53.35
2018-06-02T02:51:51.282Z,54.45
2018-06-02T02:52:55.573Z,53.28
2018-06-02T02:53:59.927Z,53.17
2018-06-02T02:55:04.223Z,52.10
2018-06-02T02:56:08.570Z,55.75
2018-06-02T02:57:13.609Z,54.00
2018-06-02T02:58:18.752Z,56.30
2018-06-02T02:59:23.079Z,54.85
2018-06-02T03:00:27.706Z,54.08
2018-06-02T03:01:32.112Z,53.30
2018-06-02T03:02:36.500Z,55.50
2018-06-02T03:03:40.948Z,52.50
2018-06-02T03:04:45.294Z,52.92
2018-06-02T03:05:49.671Z,55.88
2018-06-02T03:06:54.082Z,54.63
2018-06-02T03:07:58.388Z,55.47
2018-06-02T03:09:02.737Z,56.17
2018-06-02T03:10:07.864Z,59.30
2018-06-02T03:11:12.173Z,56.10
2018-06-02T03:12:16.463Z,54.83
2018-06-02T03:13:21.481Z,55.85
2018-06-02T03:14:26.570Z,55.38
2018-06-02T03:15:30.883Z,56.42
2018-06-02T03:16:34.938Z,52.70
2018-06-02T03:17:39.015Z,55.22
2018-06-02T03:18:43.914Z,54.72
2018-06-02T03:19:47.988Z,56.60
2018-06-02T03:20:52.072Z,57.78
2018-06-02T03:21:56.199Z,54.60
2018-06-02T03:23:00.278Z,54.38
2018-06-02T03:24:04.325Z,54.78
2018-06-02T03:25:08.397Z,55.12
2018-06-02T03:26:12.512Z,53.67
2018-06-02T03:27:16.578Z,59.60
2018-06-02T03:28:20.933Z,54.42
2018-06-02T03:29:25.247Z,57.03
2018-06-02T03:30:29.584Z,53.10
2018-06-02T03:31:34.649Z,55.15
2018-06-02T03:32:38.920Z,52.97
2018-06-02T03:33:43.282Z,53.38
2018-06-02T03:34:47.563Z,55.88
2018-06-02T03:35:51.968Z,55.75
2018-06-02T03:36:56.675Z,55.88
2018-06-02T03:38:01.199Z,56.08
2018-06-02T03:39:06.228Z,54.05
2018-06-02T03:40:10.531Z,57.35
2018-06-02T03:41:14.856Z,53.60
2018-06-02T03:42:19.150Z,52.72
2018-06-02T03:43:23.441Z,55.28
2018-06-02T03:44:27.878Z,56.90
2018-06-02T03:45:32.245Z,54.28
2018-06-02T03:46:36.567Z,54.55
2018-06-02T03:47:40.838Z,54.80
2018-06-02T03:48:45.920Z,55.95
2018-06-02T03:49:50.233Z,56.85
2018-06-02T03:50:54.556Z,56.50
2018-06-02T03:51:58.839Z,56.00
2018-06-02T03:53:03.409Z,55.03
2018-06-02T03:54:08.489Z,58.25
2018-06-02T03:55:12.773Z,54.30
2018-06-02T03:56:17.418Z,55.47
2018-06-02T03:57:21.697Z,57.13
2018-06-02T03:58:26.054Z,53.83
2018-06-02T03:59:31.052Z,59.10
2018-06-02T04:00:35.692Z,51.22
2018-06-02T04:01:40.110Z,55.05
2018-06-02T04:02:45.255Z,55.88
2018-06-02T04:03:50.299Z,55.22
2018-06-02T04:04:54.604Z,53.87
2018-06-02T04:05:58.918Z,58.70
2018-06-02T04:07:03.351Z,57.20
2018-06-02T04:08:07.643Z,55.90
2018-06-02T04:09:11.987Z,56.78
2018-06-02T04:10:16.689Z,55.05
2018-06-02T04:11:21.010Z,58.35
2018-06-02T04:12:25.335Z,57.35
2018-06-02T04:13:30.398Z,60.60
2018-06-02T04:14:34.885Z,57.97
2018-06-02T04:15:40.036Z,61.75
2018-06-02T04:16:44.477Z,59.55
2018-06-02T04:17:48.860Z,59.33
2018-06-02T04:18:53.258Z,59.63
2018-06-02T04:19:57.557Z,58.55
2018-06-02T04:21:01.839Z,61.53
2018-06-02T04:22:06.954Z,62.65
2018-06-02T04:23:11.109Z,61.05
2018-06-02T04:24:15.239Z,59.13
2018-06-02T04:25:19.352Z,60.53
2018-06-02T04:26:23.699Z,61.65
2018-06-02T04:27:28.580Z,61.58
2018-06-02T04:28:32.946Z,59.90
2018-06-02T04:29:37.135Z,63.03
2018-06-02T04:30:41.654Z,59.08
2018-06-02T04:31:46.085Z,61.25
2018-06-02T04:32:51.109Z,60.53
2018-06-02T04:33:55.394Z,61.28
2018-06-02T04:34:59.831Z,61.00
2018-06-02T04:36:03.918Z,63.17
2018-06-02T04:37:08.041Z,63.25
2018-06-02T04:38:12.211Z,65.40
2018-06-02T04:39:16.352Z,64.03
2018-06-02T04:40:20.506Z,65.28
2018-06-02T04:41:25.554Z,61.67
2018-06-02T04:42:29.998Z,63.75
2018-06-02T04:43:34.338Z,59.40
2018-06-02T04:44:39.716Z,64.72
2018-06-02T04:45:44.110Z,65.65
2018-06-02T04:46:48.393Z,64.70
2018-06-02T04:47:53.457Z,62.67
2018-06-02T04:48:57.807Z,66.00
2018-06-02T04:50:02.297Z,62.85
2018-06-02T04:51:06.859Z,63.25
2018-06-02T04:52:11.762Z,66.93
2018-06-02T04:53:15.871Z,64.65
2018-06-02T04:54:20.889Z,66.90
2018-06-02T04:55:24.924Z,66.90
2018-06-02T04:56:29.044Z,69.05
2018-06-02T04:57:33.407Z,64.97
2018-06-02T04:58:38.350Z,69.93
2018-06-02T04:59:42.794Z,72.57
2018-06-02T05:00:47.164Z,67.55
2018-06-02T05:01:51.514Z,68.45
2018-06-02T05:02:55.837Z,69.03
2018-06-02T05:04:00.439Z,70.93
2018-06-02T05:05:04.794Z,67.82
2018-06-02T05:06:09.847Z,65.65
2018-06-02T05:07:14.134Z,70.40
2018-06-02T05:08:18.445Z,66.10
2018-06-02T05:09:23.018Z,64.35
2018-06-02T05:10:27.325Z,65.80
2018-06-02T05:11:31.648Z,69.22
2018-06-02T05:12:36.716Z,65.32
2018-06-02T05:13:40.903Z,68.93
2018-06-02T05:14:44.997Z,68.18
2018-06-02T05:15:50.130Z,66.37
2018-06-02T05:16:54.950Z,66.35
2018-06-02T05:17:59.004Z,68.62
2018-06-02T05:19:03.425Z,69.28
2018-06-02T05:20:07.758Z,62.70
2018-06-02T05:21:13.137Z,62.20
2018-06-02T05:22:17.466Z,53.40
2018-06-02T05:23:21.826Z,54.80
2018-06-02T05:24:26.132Z,49.55
2018-06-02T05:25:30.515Z,48.22
2018-06-02T05:26:35.662Z,49.13
2018-06-02T05:27:40.091Z,47.53
2018-06-02T05:28:44.171Z,49.88
2018-06-02T05:29:48.270Z,48.50
2018-06-02T05:30:53.101Z,46.10
2018-06-02T05:31:57.417Z,46.50
2018-06-02T05:33:01.770Z,45.20
2018-06-02T05:34:06.527Z,45.88
2018-06-02T05:35:11.572Z,50.10
2018-06-02T05:36:15.949Z,47.45
2018-06-02T05:37:20.919Z,49.38
2018-06-02T05:38:25.007Z,48.20
2018-06-02T05:39:29.345Z,48.65
2018-06-02T05:40:33.448Z,48.55
2018-06-02T05:41:37.523Z,43.60
2018-06-02T05:42:41.566Z,48.28
2018-06-02T05:43:45.650Z,46.20
2018-06-02T05:44:49.887Z,44.53
2018-06-02T05:45:55.180Z,44.17
2018-06-02T05:46:59.457Z,43.00
2018-06-02T05:48:03.766Z,43.10
2018-06-02T05:49:08.083Z,45.30
2018-06-02T05:50:12.355Z,42.85
2018-06-02T05:51:17.441Z,43.13
2018-06-02T05:52:22.024Z,42.88
2018-06-02T05:53:26.330Z,42.65
2018-06-02T05:54:30.613Z,43.00
2018-06-02T05:55:34.906Z,41.42
2018-06-02T05:56:39.765Z,38.08
2018-06-02T05:57:44.098Z,41.92
2018-06-02T05:58:48.178Z,41.28
2018-06-02T05:59:52.297Z,40.22
2018-06-02T06:00:57.362Z,39.00
2018-06-02T06:02:02.178Z,40.60
2018-06-02T06:03:06.202Z,37.65
2018-06-02T06:04:10.514Z,34.08
2018-06-02T06:05:14.544Z,35.58
2018-06-02T06:06:18.692Z,33.72
2018-06-02T06:07:23.576Z,33.90
2018-06-02T06:08:27.679Z,35.15
2018-06-02T06:09:31.744Z,37.55
2018-06-02T06:10:36.118Z,33.30
2018-06-02T06:11:40.157Z,35.60
2018-06-02T06:12:44.244Z,34.63
2018-06-02T06:13:48.345Z,33.17
2018-06-02T06:14:53.168Z,33.60
2018-06-02T06:15:57.220Z,32.92
2018-06-02T06:17:01.554Z,33.80
2018-06-02T06:18:05.659Z,32.83
2018-06-02T06:19:09.761Z,34.25
2018-06-02T06:20:14.098Z,31.73
2018-06-02T06:21:18.391Z,30.45
2018-06-02T06:22:23.501Z,31.33
2018-06-02T06:23:28.052Z,30.35
2018-06-02T06:24:32.344Z,26.65
2018-06-02T06:25:36.644Z,26.00
2018-06-02T06:26:41.744Z,30.17
2018-06-02T06:27:46.019Z,28.50
2018-06-02T06:28:50.360Z,27.10
2018-06-02T06:29:54.627Z,24.75
2018-06-02T06:30:58.926Z,26.15
2018-06-02T06:32:03.222Z,26.12
2018-06-02T06:33:07.682Z,25.77
2018-06-02T06:34:11.832Z,28.48
2018-06-02T06:35:16.192Z,27.15
2018-06-02T06:36:20.349Z,24.48
2018-06-02T06:37:24.375Z,26.40
2018-06-02T06:38:29.051Z,28.58
2018-06-02T06:39:34.103Z,27.33
2018-06-02T06:40:38.401Z,25.92
2018-06-02T06:41:43.026Z,25.20
2018-06-02T06:42:47.303Z,27.15
2018-06-02T06:43:52.360Z,25.85
2018-06-02T06:44:56.676Z,25.25
2018-06-02T06:46:00.982Z,24.80
2018-06-02T06:47:05.270Z,26.73
2018-06-02T06:48:09.571Z,28.60
2018-06-02T06:49:13.887Z,24.65
2018-06-02T06:50:18.189Z,26.67
2018-06-02T06:51:22.615Z,25.77
2018-06-02T06:52:26.966Z,25.90
2018-06-02T06:53:31.566Z,26.17
2018-06-02T06:54:35.859Z,26.35
2018-06-02T06:55:40.161Z,24.45
2018-06-02T06:58:02.838Z,26.80
2018-06-02T06:59:07.914Z,27.35
2018-06-02T07:00:12.238Z,28.35
2018-06-02T07:01:16.447Z,25.20
2018-06-02T07:02:20.525Z,27.48
2018-06-02T07:03:24.623Z,26.05
2018-06-02T07:04:28.819Z,26.35
2018-06-02T07:05:32.968Z,25.62
2018-06-02T07:06:37.187Z,26.62
2018-06-02T07:07:41.376Z,26.12
2018-06-02T07:08:45.385Z,25.35
2018-06-02T07:09:50.209Z,24.12
2018-06-02T07:10:54.299Z,26.62
2018-06-02T07:11:58.458Z,25.55
2018-06-02T07:13:02.493Z,24.65
2018-06-02T07:14:06.563Z,25.73
2018-06-02T07:15:10.607Z,22.77
2018-06-02T07:16:14.673Z,25.48
2018-06-02T07:17:18.852Z,29.10
2018-06-02T07:18:23.746Z,22.10
2018-06-02T07:19:28.136Z,23.25
2018-06-02T07:20:32.447Z,23.30
2018-06-02T07:21:36.751Z,24.65
2018-06-02T07:22:41.061Z,24.65
2018-06-02T07:23:45.772Z,22.05
2018-06-02T07:24:50.170Z,22.20
2018-06-02T07:25:55.094Z,20.92
2018-06-02T07:26:59.174Z,21.80
2018-06-02T07:28:03.246Z,21.60
2018-06-02T07:29:08.095Z,21.50
2018-06-02T07:30:12.460Z,23.48
2018-06-02T07:31:16.573Z,23.75
2018-06-02T07:32:20.642Z,21.02
2018-06-02T07:33:25.438Z,22.70
2018-06-02T07:34:29.631Z,21.90
2018-06-02T07:35:33.747Z,21.62
2018-06-02T07:36:37.827Z,22.13
2018-06-02T07:37:41.849Z,22.70
2018-06-02T07:38:45.898Z,24.55
2018-06-02T07:39:50.162Z,23.05
2018-06-02T07:40:54.773Z,20.58
2018-06-02T07:41:59.080Z,22.02
2018-06-02T07:43:03.391Z,21.60
2018-06-02T07:44:07.654Z,19.75
2018-06-02T07:45:12.705Z,19.35
2018-06-02T07:46:16.990Z,22.20
2018-06-02T07:47:22.171Z,20.37
2018-06-02T07:48:26.662Z,22.17
2018-06-02T07:49:31.039Z,20.45
2018-06-02T07:50:36.097Z,20.62
2018-06-02T07:51:40.402Z,19.92
2018-06-02T07:52:44.714Z,19.92
2018-06-02T07:53:48.988Z,21.83
2018-06-02T07:54:54.025Z,22.48
2018-06-02T07:55:58.331Z,21.02
2018-06-02T07:57:02.605Z,20.42
2018-06-02T07:58:06.646Z,22.40
2018-06-02T07:59:10.688Z,22.13
2018-06-02T08:00:14.730Z,20.60
2018-06-02T08:01:19.511Z,19.70
2018-06-02T08:02:23.569Z,21.98
2018-06-02T08:03:28.445Z,21.02
2018-06-02T08:04:32.521Z,22.37
2018-06-02T08:05:36.581Z,22.17
2018-06-02T08:06:40.654Z,23.23
2018-06-02T08:07:45.107Z,21.70
2018-06-02T08:08:49.159Z,24.12
2018-06-02T08:09:53.203Z,21.92
2018-06-02T08:14:07.706Z,19.05
2018-06-02T08:15:11.799Z,18.30
2018-06-02T08:16:15.852Z,19.90
2018-06-02T08:17:20.657Z,17.15
2018-06-02T08:18:25.522Z,17.90
2018-06-02T08:19:29.681Z,17.52
2018-06-02T08:20:33.893Z,17.62
2018-06-02T08:21:38.715Z,16.70
2018-06-02T08:22:43.547Z,14.90
2018-06-02T08:23:47.603Z,15.07
2018-06-02T08:24:51.773Z,15.50
2018-06-02T08:25:56.139Z,15.35
2018-06-02T08:27:00.206Z,16.30
2018-06-02T08:28:04.242Z,16.45
2018-06-02T08:29:09.064Z,15.88
2018-06-02T08:30:13.868Z,17.80
2018-06-02T08:31:18.174Z,15.60
2018-06-02T08:32:22.279Z,17.00
2018-06-02T08:33:27.255Z,16.85
2018-06-02T08:34:31.317Z,16.52
2018-06-02T08:35:36.115Z,15.63
2018-06-02T08:36:40.219Z,15.90
2018-06-02T08:37:44.350Z,15.85
2018-06-02T08:38:49.218Z,16.37
2018-06-02T08:39:53.304Z,14.75
2018-06-02T08:40:57.369Z,13.88
2018-06-02T08:42:02.213Z,13.85
2018-06-02T08:43:06.510Z,16.08
2018-06-02T08:44:11.105Z,14.57
2018-06-02T08:45:16.182Z,14.55
2018-06-02T08:46:20.519Z,14.57
2018-06-02T08:47:24.835Z,14.13
2018-06-02T08:48:29.136Z,14.65
2018-06-02T08:49:33.734Z,15.52
2018-06-02T08:50:38.018Z,16.15
2018-06-02T08:51:42.314Z,16.25
2018-06-02T08:52:46.350Z,15.73
2018-06-02T08:53:50.419Z,15.75
2018-06-02T08:54:54.461Z,14.73
2018-06-02T08:55:58.517Z,15.68
2018-06-02T08:57:02.571Z,16.42
2018-06-02T08:58:07.491Z,15.90
2018-06-02T08:59:11.539Z,15.13
2018-06-02T09:00:15.652Z,17.02
2018-06-02T09:01:19.710Z,17.45
2018-06-02T09:02:24.273Z,17.50
2018-06-02T09:03:28.565Z,15.40
2018-06-02T09:04:32.836Z,16.67
2018-06-02T09:05:37.111Z,14.68
2018-06-02T09:06:41.375Z,17.77
2018-06-02T09:07:45.658Z,16.77
2018-06-02T09:08:50.990Z,17.05
2018-06-02T09:09:56.039Z,15.35
2018-06-02T09:11:00.374Z,17.20
2018-06-02T09:12:04.696Z,14.40
2018-06-02T09:13:08.987Z,15.88
2018-06-02T09:14:13.275Z,12.85
2018-06-02T09:15:17.888Z,13.75
2018-06-02T09:16:22.300Z,14.57
2018-06-02T09:17:26.688Z,13.62
2018-06-02T09:18:31.823Z,12.23
2018-06-02T09:19:36.162Z,14.55
2018-06-02T09:20:40.252Z,13.95
2018-06-02T09:21:44.697Z,14.32
2018-06-02T09:22:49.175Z,13.98
2018-06-02T09:23:53.270Z,15.85
2018-06-02T09:24:58.126Z,12.98
2018-06-02T09:26:02.190Z,12.23
2018-06-02T09:27:06.292Z,12.88
2018-06-02T09:28:10.672Z,17.83
2018-06-02T09:29:15.659Z,19.05
2018-06-02T09:30:19.994Z,21.02
2018-06-02T09:31:24.859Z,17.83
2018-06-02T09:32:29.168Z,12.35
2018-06-02T09:33:33.345Z,11.75
2018-06-02T09:34:38.494Z,10.70
2018-06-02T09:35:42.565Z,10.15
2018-06-02T09:36:47.468Z,11.52
2018-06-02T09:37:51.564Z,9.82
2018-06-02T09:38:55.638Z,12.00
2018-06-02T09:39:59.964Z,9.45
2018-06-02T09:41:04.275Z,9.32
2018-06-02T09:42:09.414Z,9.25
2018-06-02T09:43:13.711Z,9.35
2018-06-02T09:44:18.062Z,10.55
2018-06-02T09:45:22.348Z,7.45
2018-06-02T09:46:27.475Z,7.60
2018-06-02T09:47:32.651Z,8.70
2018-06-02T09:48:37.620Z,6.60
2018-06-02T09:49:41.770Z,7.53
2018-06-02T09:50:45.855Z,7.05
2018-06-02T09:51:49.956Z,8.07
2018-06-02T09:52:54.227Z,8.80
2018-06-02T09:53:58.631Z,9.70
2018-06-02T09:55:02.755Z,9.68
2018-06-02T09:56:07.635Z,8.77
2018-06-02T09:57:11.700Z,9.90
2018-06-02T09:58:16.070Z,9.63
2018-06-02T09:59:20.411Z,8.10
2018-06-02T10:00:25.943Z,8.40
2018-06-02T10:01:31.049Z,8.95
2018-06-02T10:02:36.123Z,7.70
2018-06-02T10:03:40.504Z,9.25
2018-06-02T10:04:45.716Z,9.27
2018-06-02T10:05:50.131Z,9.93
2018-06-02T10:06:55.523Z,10.27
2018-06-02T10:07:59.663Z,11.93
2018-06-02T10:09:04.015Z,11.00
2018-06-02T10:10:08.156Z,10.38
2018-06-02T10:11:12.351Z,11.98
2018-06-02T10:12:16.487Z,10.98
2018-06-02T10:13:21.784Z,11.27
2018-06-02T10:14:26.103Z,11.00
2018-06-02T10:15:30.264Z,10.93
2018-06-02T10:16:34.636Z,12.57
2018-06-02T10:17:39.590Z,11.43
2018-06-02T10:18:43.770Z,11.38
2018-06-02T10:19:48.171Z,12.37
2018-06-02T10:20:53.337Z,10.07
2018-06-02T10:21:57.674Z,11.05
2018-06-02T10:23:02.018Z,8.93
2018-06-02T10:24:07.207Z,9.23
2018-06-02T10:25:11.528Z,8.57
2018-06-02T10:26:15.882Z,7.72
2018-06-02T10:27:20.308Z,8.43
2018-06-02T10:28:24.626Z,8.30
2018-06-02T10:29:28.948Z,7.60
2018-06-02T10:30:33.408Z,8.60
2018-06-02T10:31:37.742Z,7.65
2018-06-02T10:32:42.069Z,7.70
2018-06-02T10:33:46.471Z,8.23
2018-06-02T10:34:50.796Z,7.43
2018-06-02T10:35:55.185Z,7.90
2018-06-02T10:36:59.359Z,7.28
2018-06-02T10:38:03.787Z,8.40
2018-06-02T10:39:07.990Z,7.43
2018-06-02T10:40:12.308Z,7.55
2018-06-02T10:41:16.466Z,7.20
2018-06-02T10:42:21.755Z,8.00
2018-06-02T10:43:26.135Z,7.50
2018-06-02T10:44:30.227Z,11.55
2018-06-02T10:45:34.522Z,9.18
2018-06-02T10:46:39.359Z,7.78
2018-06-02T10:47:43.613Z,7.55
2018-06-02T10:48:47.677Z,7.72
2018-06-02T10:49:51.828Z,6.87
2018-06-02T10:50:56.019Z,7.82
2018-06-02T10:52:00.565Z,7.93
2018-06-02T10:53:05.842Z,7.70
2018-06-02T10:54:10.368Z,7.65
2018-06-02T10:55:16.172Z,8.38
2018-06-02T10:56:20.766Z,8.98
2018-06-02T10:57:25.792Z,7.25
2018-06-02T10:58:30.291Z,7.22
2018-06-02T10:59:35.407Z,8.10
2018-06-02T11:00:39.535Z,7.43
2018-06-02T11:01:44.559Z,7.62
2018-06-02T11:02:48.694Z,7.53
2018-06-02T11:03:53.145Z,6.85
2018-06-02T11:04:57.498Z,7.50
2018-06-02T11:06:01.634Z,8.10
2018-06-02T11:07:05.990Z,6.70
2018-06-02T11:08:11.136Z,7.25
2018-06-02T11:09:15.407Z,7.93
2018-06-02T11:10:20.203Z,7.40
2018-06-02T11:11:24.597Z,7.22
2018-06-02T11:12:28.894Z,6.05
2018-06-02T11:13:33.238Z,6.43
2018-06-02T11:14:37.618Z,6.05
2018-06-02T11:15:42.141Z,6.35
2018-06-02T11:16:46.877Z,7.43
2018-06-02T11:17:51.192Z,10.65
2018-06-02T11:18:56.331Z,8.10
2018-06-02T11:20:01.465Z,9.20
2018-06-02T11:21:06.722Z,12.95
2018-06-02T11:22:11.323Z,13.20
2018-06-02T11:23:16.438Z,11.77
2018-06-02T11:24:21.522Z,11.55
2018-06-02T11:25:25.857Z,10.00
2018-06-02T11:26:30.719Z,10.73
2018-06-02T11:27:34.850Z,7.65
2018-06-02T11:28:39.448Z,14.35
2018-06-02T11:29:43.603Z,41.83
2018-06-02T11:30:48.524Z,12.80
2018-06-02T11:31:53.426Z,15.30
2018-06-02T11:32:57.545Z,11.60
2018-06-02T11:34:01.660Z,105.90
2018-06-02T11:35:06.186Z,19.87
2018-06-02T11:36:11.176Z,14.50
2018-06-02T11:37:16.058Z,13.93
2018-06-02T11:38:20.254Z,8.77
2018-06-02T11:39:24.363Z,10.35
2018-06-02T11:40:28.527Z,20.40
2018-06-02T11:41:33.750Z,40.42
2018-06-02T11:42:38.576Z,18.30
2018-06-02T11:43:43.711Z,24.33
2018-06-02T11:44:48.089Z,18.23
2018-06-02T11:45:52.558Z,18.10
2018-06-02T11:46:56.866Z,13.40
2018-06-02T11:48:01.492Z,37.97
2018-06-02T11:49:05.640Z,38.88
2018-06-02T11:50:10.496Z,34.05
2018-06-02T11:51:14.574Z,61.37
2018-06-02T11:52:18.967Z,35.67
2018-06-02T11:53:24.187Z,41.47
2018-06-02T11:54:29.031Z,19.02
2018-06-02T11:55:33.930Z,10.80
2018-06-02T11:56:38.236Z,6.20
2018-06-02T11:57:43.171Z,7.78
2018-06-02T11:58:48.034Z,12.48
2018-06-02T11:59:52.175Z,10.35
2018-06-02T12:00:56.283Z,22.65
2018-06-02T12:02:01.199Z,21.02
2018-06-02T12:03:05.320Z,14.40
2018-06-02T12:04:10.153Z,16.92
2018-06-02T12:05:14.193Z,40.45
2018-06-02T12:06:18.273Z,28.87
2018-06-02T12:07:22.635Z,11.23
2018-06-02T12:08:27.829Z,28.80
2018-06-02T12:09:32.922Z,111.60
2018-06-02T12:10:37.215Z,20.85
2018-06-02T12:11:42.262Z,9.20
2018-06-02T12:12:46.319Z,7.62
2018-06-02T12:13:50.740Z,16.45
2018-06-02T12:14:55.614Z,6.18
2018-06-02T12:15:59.682Z,6.85
2018-06-02T12:17:04.614Z,16.37
2018-06-02T12:18:08.722Z,14.20
2018-06-02T12:19:12.802Z,11.80
2018-06-02T12:20:17.910Z,10.27
2018-06-02T12:21:21.950Z,17.00
2018-06-02T12:22:26.049Z,18.70
2018-06-02T12:23:30.153Z,12.80
2018-06-02T12:24:34.265Z,14.13
2018-06-02T12:25:38.375Z,14.63
2018-06-02T12:26:42.736Z,8.52
2018-06-02T12:27:47.547Z,12.60
2018-06-02T12:28:51.736Z,6.93
2018-06-02T12:29:55.794Z,8.88
2018-06-02T12:31:00.051Z,5.18
2018-06-02T12:32:04.371Z,23.30
2018-06-02T12:33:08.950Z,9.65
2018-06-02T12:34:13.267Z,45.92
2018-06-02T12:35:17.675Z,29.23
2018-06-02T12:36:22.003Z,28.83
2018-06-02T12:37:26.297Z,5.78
2018-06-02T12:38:30.567Z,8.57
2018-06-02T12:39:35.122Z,9.15
2018-06-02T12:40:39.445Z,4.90
2018-06-02T12:41:43.867Z,6.55
2018-06-02T12:42:49.023Z,5.10
2018-06-02T12:43:53.329Z,6.35
2018-06-02T12:44:57.714Z,8.05
2018-06-02T12:46:02.559Z,5.72
2018-06-02T12:47:06.634Z,6.32
2018-06-02T12:48:11.529Z,5.20
2018-06-02T12:49:15.570Z,4.28
2018-06-02T12:50:19.632Z,3.50
2018-06-02T12:51:23.734Z,17.75
2018-06-02T12:52:27.787Z,7.57
2018-06-02T12:53:31.854Z,3.47
2018-06-02T12:54:36.959Z,4.05
2018-06-02T12:55:41.278Z,3.87
2018-06-02T12:56:46.338Z,3.50
2018-06-02T12:57:50.727Z,3.25
2018-06-02T12:58:56.051Z,3.92
2018-06-02T13:00:01.131Z,4.90
2018-06-02T13:01:05.515Z,3.50
2018-06-02T13:02:09.814Z,3.10
2018-06-02T13:03:14.126Z,62.13
2018-06-02T13:04:18.945Z,8.65
2018-06-02T13:05:24.100Z,4.00
2018-06-02T13:06:28.218Z,3.05
2018-06-02T13:07:32.288Z,3.25
2018-06-02T13:08:36.348Z,3.58
2018-06-02T13:09:40.412Z,2.25
2018-06-02T13:10:44.747Z,2.25
2018-06-02T13:11:49.316Z,4.30
2018-06-02T13:12:53.690Z,2.12
2018-06-02T13:13:58.737Z,2.65
2018-06-02T13:15:03.058Z,4.40
2018-06-02T13:16:07.150Z,3.28
2018-06-02T13:17:11.169Z,2.33
2018-06-02T13:18:15.570Z,3.90
2018-06-02T13:19:19.664Z,4.65
2018-06-02T13:20:24.225Z,4.82
2018-06-02T13:21:28.288Z,4.75
2018-06-02T13:22:32.575Z,2.78
2018-06-02T13:23:36.890Z,2.70
2018-06-02T13:24:41.029Z,18.00
2018-06-02T13:25:46.231Z,4.75
2018-06-02T13:26:50.543Z,4.10
2018-06-02T13:27:54.847Z,3.80
2018-06-02T13:30:01.852Z,2.85
2018-06-02T13:31:06.182Z,3.08
2018-06-02T13:32:11.215Z,27.75
2018-06-02T13:33:16.275Z,7.25
2018-06-02T13:34:20.610Z,10.45
2018-06-02T13:35:26.134Z,4.30
2018-06-02T13:36:30.470Z,3.03
2018-06-02T13:37:34.791Z,8.20
2018-06-02T13:38:39.122Z,6.55
2018-06-02T13:39:43.340Z,3.80
2018-06-02T13:40:47.775Z,18.85
2018-06-02T13:41:52.344Z,47.80
2018-06-02T13:42:57.446Z,83.05
2018-06-02T13:44:01.523Z,4.97
2018-06-02T13:45:05.581Z,4.07
2018-06-02T13:46:09.630Z,4.68
2018-06-02T13:47:13.811Z,4.05
2018-06-02T13:48:18.676Z,3.72
2018-06-02T13:49:23.644Z,6.75
2018-06-02T13:50:27.734Z,49.05
2018-06-02T13:51:31.934Z,46.50
2018-06-02T13:52:36.111Z,11.80
2018-06-02T13:53:40.316Z,7.87
2018-06-02T13:54:45.511Z,3.95
2018-06-02T13:55:50.528Z,3.60
2018-06-02T13:56:54.568Z,4.97
2018-06-02T13:57:58.630Z,19.90
2018-06-02T13:59:02.885Z,11.40
2018-06-02T14:00:07.773Z,8.32
2018-06-02T14:01:12.143Z,10.70